createdAt,value
2022-12-31T00:01:54.565Z,12.60
2022-12-31T00:04:20.956Z,12.60
2022-12-31T00:06:48.359Z,12.60
2022-12-31T00:09:14.828Z,12.61
2022-12-31T00:11:47.441Z,12.64
2022-12-31T00:14:14.352Z,12.64
2022-12-31T00:16:48.550Z,12.65
2022-12-31T00:19:15.710Z,12.65
2022-12-31T00:21:43.899Z,12.59
2022-12-31T00:24:12.537Z,12.66
2022-12-31T00:26:39.288Z,12.68
2022-12-31T00:29:05.964Z,12.66
2022-12-31T00:31:40.109Z,12.66
2022-12-31T00:34:07.322Z,12.65
2022-12-31T00:36:49.680Z,12.65
2022-12-31T00:39:16.282Z,12.65
2022-12-31T00:41:44.137Z,12.67
2022-12-31T00:44:14.469Z,12.70
2022-12-31T00:47:04.108Z,12.70
2022-12-31T00:49:30.591Z,12.72
2022-12-31T00:51:57.497Z,12.71
2022-12-31T00:54:23.835Z,12.72
2022-12-31T00:57:07.760Z,12.74
2022-12-31T00:59:37.229Z,12.74
2022-12-31T01:02:07.053Z,12.74
2022-12-31T01:04:33.529Z,12.75
2022-12-31T01:06:59.965Z,12.76
2022-12-31T01:09:27.191Z,12.76
2022-12-31T01:12:00.512Z,12.67
2022-12-31T01:14:27.652Z,12.76
2022-12-31T01:16:57.783Z,12.74
2022-12-31T01:19:27.361Z,12.77
2022-12-31T01:21:54.681Z,12.80
2022-12-31T01:24:21.495Z,12.68
2022-12-31T01:26:48.243Z,12.77
2022-12-31T01:29:16.920Z,12.76
2022-12-31T01:31:44.004Z,12.75
2022-12-31T01:34:10.659Z,12.74
2022-12-31T01:36:38.800Z,12.74
2022-12-31T01:39:07.339Z,12.75
2022-12-31T01:41:42.985Z,12.75
2022-12-31T01:44:12.147Z,12.73
2022-12-31T01:46:48.287Z,12.70
2022-12-31T01:49:40.825Z,12.69
2022-12-31T01:52:20.055Z,12.66
2022-12-31T01:55:08.574Z,12.64
2022-12-31T01:57:36.819Z,12.63
2022-12-31T02:00:06.143Z,12.60
2022-12-31T02:02:33.038Z,12.58
2022-12-31T02:05:02.713Z,12.59
2022-12-31T02:07:29.214Z,12.57
2022-12-31T02:09:55.840Z,12.58
2022-12-31T02:12:22.751Z,12.58
2022-12-31T02:14:53.096Z,12.56
2022-12-31T02:17:28.871Z,12.58
2022-12-31T02:20:26.477Z,12.59
2022-12-31T02:23:31.105Z,12.59
2022-12-31T02:26:27.881Z,12.58
2022-12-31T02:29:33.492Z,12.57
2022-12-31T02:32:13.897Z,12.54
2022-12-31T02:35:25.053Z,12.56
2022-12-31T02:37:54.685Z,12.54
2022-12-31T02:40:48.963Z,12.56
2022-12-31T02:43:15.419Z,12.58
2022-12-31T02:45:45.463Z,12.57
2022-12-31T02:48:28.551Z,12.57
2022-12-31T02:51:26.529Z,12.55
2022-12-31T02:54:19.537Z,12.56
2022-12-31T02:57:30.355Z,12.53
2022-12-31T03:00:20.140Z,12.50
2022-12-31T03:02:48.227Z,12.48
2022-12-31T03:05:17.996Z,12.45
2022-12-31T03:07:48.400Z,12.43
2022-12-31T03:10:18.391Z,12.38
2022-12-31T03:12:48.679Z,12.40
2022-12-31T03:15:35.705Z,12.39
2022-12-31T03:18:09.531Z,12.35
2022-12-31T03:21:09.476Z,12.32
2022-12-31T03:23:45.610Z,12.32
2022-12-31T03:26:21.342Z,12.29
2022-12-31T03:28:48.132Z,12.29
2022-12-31T03:31:16.254Z,12.26
2022-12-31T03:33:44.905Z,12.25
2022-12-31T03:36:15.511Z,12.23
2022-12-31T03:38:52.603Z,12.21
2022-12-31T03:41:19.613Z,12.22
2022-12-31T03:43:46.414Z,12.17
2022-12-31T03:46:13.041Z,12.18
2022-12-31T03:48:40.256Z,12.17
2022-12-31T03:51:10.814Z,12.15
2022-12-31T03:53:37.257Z,12.16
2022-12-31T03:56:04.106Z,12.14
2022-12-31T03:58:30.565Z,12.13
2022-12-31T04:00:57.115Z,12.13
2022-12-31T04:03:23.650Z,12.14
2022-12-31T04:06:01.413Z,12.13
2022-12-31T04:08:28.267Z,12.11
2022-12-31T04:10:54.755Z,12.11
2022-12-31T04:13:23.110Z,12.10
2022-12-31T04:15:51.441Z,12.09
2022-12-31T04:18:17.837Z,12.08
2022-12-31T04:20:55.685Z,12.05
2022-12-31T04:23:22.433Z,11.98
2022-12-31T04:25:48.816Z,12.01
2022-12-31T04:28:15.924Z,12.02
2022-12-31T04:30:56.305Z,12.02
2022-12-31T04:33:22.686Z,12.01
2022-12-31T04:35:59.847Z,11.99
2022-12-31T04:38:26.517Z,11.95
2022-12-31T04:41:11.404Z,11.95
2022-12-31T04:43:38.465Z,11.94
2022-12-31T04:46:08.171Z,11.93
2022-12-31T04:48:43.668Z,11.93
2022-12-31T04:51:10.277Z,11.93
2022-12-31T04:53:39.746Z,11.90
2022-12-31T04:56:07.340Z,11.91
2022-12-31T04:58:34.455Z,11.92
2022-12-31T05:01:01.495Z,11.91
2022-12-31T05:03:28.307Z,11.92
2022-12-31T05:06:09.288Z,11.91
2022-12-31T05:09:00.599Z,11.91
2022-12-31T05:11:30.086Z,11.90
2022-12-31T05:13:57.136Z,11.90
2022-12-31T05:16:23.857Z,11.90
2022-12-31T05:18:50.463Z,11.90
2022-12-31T05:21:27.425Z,11.88
2022-12-31T05:23:57.070Z,11.92
2022-12-31T05:26:23.667Z,11.88
2022-12-31T05:28:53.479Z,11.90
2022-12-31T05:31:19.988Z,11.87
2022-12-31T05:33:47.247Z,11.90
2022-12-31T05:36:18.108Z,11.91
2022-12-31T05:38:44.466Z,11.90
2022-12-31T05:41:16.509Z,11.90
2022-12-31T05:43:43.120Z,11.90
2022-12-31T05:46:09.678Z,11.78
2022-12-31T05:48:38.458Z,11.92
2022-12-31T05:51:07.997Z,11.97
2022-12-31T05:56:20.740Z,11.99
2022-12-31T05:58:49.709Z,12.01
2022-12-31T06:01:25.404Z,12.05
2022-12-31T06:03:56.074Z,12.05
2022-12-31T06:06:23.954Z,12.09
2022-12-31T06:08:51.587Z,12.11
2022-12-31T06:11:18.287Z,12.12
2022-12-31T06:13:44.830Z,12.12
2022-12-31T06:16:11.895Z,12.14
2022-12-31T06:18:38.394Z,12.17
2022-12-31T06:21:05.210Z,12.17
2022-12-31T06:23:43.609Z,12.21
2022-12-31T06:26:10.242Z,12.21
2022-12-31T06:28:36.770Z,12.23
2022-12-31T06:31:07.588Z,12.22
2022-12-31T06:33:35.046Z,12.25
2022-12-31T06:36:05.395Z,12.25
2022-12-31T06:38:34.278Z,12.26
2022-12-31T06:41:08.309Z,12.31
2022-12-31T06:43:35.136Z,12.34
2022-12-31T06:46:03.092Z,12.37
2022-12-31T06:48:30.008Z,12.40
2022-12-31T06:50:56.551Z,12.45
2022-12-31T06:53:23.210Z,12.48
2022-12-31T06:55:50.171Z,12.52
2022-12-31T06:58:17.283Z,12.56
2022-12-31T07:01:24.174Z,12.60
2022-12-31T07:04:01.339Z,12.64
2022-12-31T07:07:01.463Z,12.70
2022-12-31T07:10:06.133Z,12.73
2022-12-31T07:12:38.061Z,12.79
2022-12-31T07:15:06.288Z,12.85
2022-12-31T07:17:45.108Z,12.88
2022-12-31T07:20:15.301Z,12.91
2022-12-31T07:22:42.273Z,12.97
2022-12-31T07:25:14.014Z,13.01
2022-12-31T07:27:59.569Z,13.06
2022-12-31T07:30:46.900Z,13.08
2022-12-31T07:33:55.152Z,13.12
2022-12-31T07:36:31.740Z,13.17
2022-12-31T07:39:08.219Z,13.19
2022-12-31T07:41:50.882Z,13.23
2022-12-31T07:44:42.721Z,13.25
2022-12-31T07:47:20.521Z,13.25
2022-12-31T07:49:47.380Z,13.31
2022-12-31T07:52:14.025Z,13.35
2022-12-31T07:54:40.438Z,13.37
2022-12-31T07:57:09.629Z,13.39
2022-12-31T08:00:00.495Z,13.41
2022-12-31T08:02:32.941Z,13.43
2022-12-31T08:05:12.229Z,13.45
2022-12-31T08:08:17.796Z,13.47
2022-12-31T08:10:52.221Z,13.52
2022-12-31T08:13:21.008Z,13.53
2022-12-31T08:15:49.920Z,13.55
2022-12-31T08:18:17.067Z,13.57
2022-12-31T08:20:57.561Z,13.59
2022-12-31T08:23:44.331Z,13.60
2022-12-31T08:26:26.928Z,13.60
2022-12-31T08:29:34.337Z,13.61
2022-12-31T08:32:13.824Z,13.61
2022-12-31T08:35:19.989Z,13.62
2022-12-31T08:39:03.318Z,13.61
2022-12-31T08:42:03.489Z,13.59
2022-12-31T08:44:34.693Z,13.58
2022-12-31T08:47:21.355Z,13.58
2022-12-31T08:50:00.687Z,13.57
2022-12-31T08:52:28.337Z,13.58
2022-12-31T08:54:57.027Z,13.57
2022-12-31T09:00:17.365Z,13.58
2022-12-31T09:03:00.133Z,13.59
2022-12-31T09:05:26.566Z,13.61
2022-12-31T09:08:19.234Z,13.62
2022-12-31T09:11:11.698Z,13.64
2022-12-31T09:14:15.597Z,13.66
2022-12-31T09:20:14.854Z,13.69
2022-12-31T09:22:50.973Z,13.71
2022-12-31T09:25:21.412Z,13.73
2022-12-31T09:28:12.641Z,13.77
2022-12-31T09:31:04.516Z,13.81
2022-12-31T09:33:42.894Z,13.82
2022-12-31T09:36:27.133Z,13.85
2022-12-31T09:39:16.861Z,13.82
2022-12-31T09:42:13.447Z,13.91
2022-12-31T09:45:08.128Z,13.93
2022-12-31T09:47:56.027Z,13.94
2022-12-31T09:50:38.807Z,13.94
2022-12-31T09:53:07.879Z,13.95
2022-12-31T09:55:57.945Z,13.96
2022-12-31T09:58:32.522Z,13.97
2022-12-31T10:01:33.133Z,13.97
2022-12-31T10:04:46.290Z,13.98
2022-12-31T10:07:53.708Z,13.96
2022-12-31T10:10:49.860Z,13.97
2022-12-31T10:13:22.377Z,13.97
2022-12-31T10:16:13.565Z,14.01
2022-12-31T10:18:53.138Z,14.02
2022-12-31T10:21:38.147Z,14.06
2022-12-31T10:24:16.787Z,14.08
2022-12-31T10:27:01.617Z,14.09
2022-12-31T10:29:57.015Z,14.15
2022-12-31T10:32:31.552Z,14.20
2022-12-31T10:35:27.306Z,14.22
2022-12-31T10:38:32.490Z,14.28
2022-12-31T10:41:21.025Z,14.32
2022-12-31T10:44:12.428Z,14.33
2022-12-31T10:47:05.235Z,14.34
2022-12-31T10:50:09.785Z,14.36
2022-12-31T10:52:48.704Z,14.36
2022-12-31T10:55:46.745Z,14.40
2022-12-31T10:58:50.914Z,14.43
2022-12-31T11:01:20.681Z,14.44
2022-12-31T11:04:19.956Z,14.47
2022-12-31T11:06:52.653Z,14.51
2022-12-31T11:09:50.683Z,14.52
2022-12-31T11:13:00.985Z,14.59
2022-12-31T11:15:43.940Z,14.61
2022-12-31T11:18:57.471Z,14.61
2022-12-31T11:21:41.384Z,14.63
2022-12-31T11:24:36.134Z,14.65
2022-12-31T11:27:38.400Z,14.65
2022-12-31T11:30:33.644Z,14.65
2022-12-31T11:33:05.942Z,14.65
2022-12-31T11:36:04.907Z,14.66
2022-12-31T11:38:41.040Z,14.63
2022-12-31T11:41:28.165Z,14.67
2022-12-31T11:44:19.574Z,14.69
2022-12-31T11:47:01.345Z,14.70
2022-12-31T11:49:42.986Z,14.70
2022-12-31T11:53:00.734Z,14.69
2022-12-31T11:55:43.228Z,14.65
2022-12-31T11:58:20.355Z,14.63
2022-12-31T12:00:59.146Z,14.64
2022-12-31T12:03:28.997Z,14.63
2022-12-31T12:06:02.730Z,14.66
2022-12-31T12:08:31.818Z,14.68
2022-12-31T12:11:13.465Z,14.72
2022-12-31T12:13:40.062Z,14.75
2022-12-31T12:16:07.744Z,14.77
2022-12-31T12:18:53.033Z,14.80
2022-12-31T12:21:29.555Z,14.81
2022-12-31T12:24:02.356Z,14.84
2022-12-31T12:26:41.757Z,14.84
2022-12-31T12:29:32.276Z,14.84
2022-12-31T12:32:09.057Z,14.86
2022-12-31T12:34:47.736Z,14.87
2022-12-31T12:37:36.294Z,14.88
2022-12-31T12:40:09.492Z,14.86
2022-12-31T12:42:36.060Z,14.88
2022-12-31T12:45:04.276Z,14.89
2022-12-31T12:47:31.101Z,14.91
2022-12-31T12:49:58.744Z,14.92
2022-12-31T12:52:59.925Z,14.95
2022-12-31T12:55:36.032Z,14.97
2022-12-31T12:58:20.379Z,14.97
2022-12-31T13:01:19.602Z,14.98
2022-12-31T13:04:33.385Z,14.97
2022-12-31T13:07:03.411Z,14.98
2022-12-31T13:09:38.022Z,15.00
2022-12-31T13:12:08.957Z,15.01
2022-12-31T13:14:50.792Z,15.02
2022-12-31T13:18:02.401Z,15.02
2022-12-31T13:20:44.058Z,14.97
2022-12-31T13:23:25.762Z,14.94
2022-12-31T13:26:04.360Z,14.92
2022-12-31T13:28:33.437Z,14.92
2022-12-31T13:31:11.006Z,14.92
2022-12-31T13:33:48.277Z,14.91
2022-12-31T13:36:19.335Z,14.89
2022-12-31T13:38:52.019Z,14.90
2022-12-31T13:41:49.778Z,14.90
2022-12-31T13:45:02.133Z,14.91
2022-12-31T13:47:50.437Z,14.89
2022-12-31T13:51:21.701Z,14.86
2022-12-31T13:54:34.764Z,14.82
2022-12-31T13:57:22.961Z,14.80
2022-12-31T13:59:58.001Z,14.80
2022-12-31T14:02:33.472Z,14.82
2022-12-31T14:05:16.295Z,14.84
2022-12-31T14:07:54.294Z,14.81
2022-12-31T14:10:36.167Z,14.82
2022-12-31T14:13:14.976Z,14.82
2022-12-31T14:15:51.584Z,14.79
2022-12-31T14:18:27.375Z,14.78
2022-12-31T14:21:23.731Z,14.76
2022-12-31T14:24:15.835Z,14.73
2022-12-31T14:26:50.381Z,14.68
2022-12-31T14:29:26.164Z,14.68
2022-12-31T14:31:59.978Z,14.66
2022-12-31T14:34:37.889Z,14.62
2022-12-31T14:37:21.690Z,14.61
2022-12-31T14:40:16.882Z,14.59
2022-12-31T14:43:16.760Z,14.55
2022-12-31T14:46:06.311Z,14.52
2022-12-31T14:49:01.029Z,14.53
2022-12-31T14:51:31.021Z,14.54
2022-12-31T14:53:59.101Z,14.54
2022-12-31T14:56:45.994Z,14.56
2022-12-31T14:59:29.764Z,14.57
2022-12-31T15:01:58.631Z,14.52
2022-12-31T15:04:45.671Z,14.57
2022-12-31T15:07:41.231Z,14.58
2022-12-31T15:10:13.577Z,14.59
2022-12-31T15:12:46.662Z,14.57
2022-12-31T15:15:41.061Z,14.58
2022-12-31T15:18:30.317Z,14.59
2022-12-31T15:21:11.955Z,14.58
2022-12-31T15:23:42.305Z,14.57
2022-12-31T15:26:21.988Z,14.59
2022-12-31T15:28:58.493Z,14.58
2022-12-31T15:31:25.595Z,14.60
2022-12-31T15:34:02.850Z,14.60
2022-12-31T15:36:35.559Z,14.60
2022-12-31T15:39:31.423Z,14.63
2022-12-31T15:44:55.748Z,14.62
2022-12-31T15:47:34.545Z,14.62
2022-12-31T15:50:09.308Z,14.59
2022-12-31T15:52:42.824Z,14.64
2022-12-31T15:55:21.921Z,14.65
2022-12-31T15:57:49.699Z,14.67
2022-12-31T16:00:22.205Z,14.71
2022-12-31T16:02:53.818Z,14.75
2022-12-31T16:05:23.783Z,14.80
2022-12-31T16:07:56.085Z,14.84
2022-12-31T16:10:30.113Z,14.91
2022-12-31T16:12:57.846Z,14.95
2022-12-31T16:15:27.937Z,14.95
2022-12-31T16:18:09.692Z,15.02
2022-12-31T16:20:42.570Z,15.03
2022-12-31T16:23:42.141Z,15.04
2022-12-31T16:26:10.825Z,15.05
2022-12-31T16:28:37.601Z,15.07
2022-12-31T16:31:06.967Z,15.06
2022-12-31T16:33:34.313Z,15.08
2022-12-31T16:36:05.127Z,15.10
2022-12-31T16:38:37.172Z,15.10
2022-12-31T16:41:03.542Z,15.13
2022-12-31T16:43:38.764Z,15.15
2022-12-31T16:46:27.428Z,15.16
2022-12-31T16:49:07.429Z,15.15
2022-12-31T16:51:37.632Z,15.15
2022-12-31T16:54:04.529Z,15.16
2022-12-31T16:56:39.265Z,15.17
2022-12-31T16:59:33.366Z,15.18
2022-12-31T17:02:07.022Z,15.17
2022-12-31T17:04:33.950Z,15.17
2022-12-31T17:07:26.583Z,15.21
2022-12-31T17:10:06.958Z,15.20
2022-12-31T17:12:53.049Z,15.18
2022-12-31T17:15:25.788Z,15.20
2022-12-31T17:17:56.468Z,15.18
2022-12-31T17:20:29.291Z,15.20
2022-12-31T17:22:59.704Z,15.19
2022-12-31T17:25:34.013Z,15.20
2022-12-31T17:28:22.961Z,15.22
2022-12-31T17:30:49.957Z,15.20
2022-12-31T17:33:25.274Z,15.21
2022-12-31T17:36:14.951Z,15.21
2022-12-31T17:38:42.266Z,15.20
2022-12-31T17:41:08.560Z,15.18
2022-12-31T17:43:39.220Z,15.21
2022-12-31T17:46:16.731Z,15.22
2022-12-31T17:49:02.360Z,15.22
2022-12-31T17:51:28.769Z,15.23
2022-12-31T17:53:55.286Z,15.23
2022-12-31T17:56:22.005Z,15.24
2022-12-31T17:58:56.065Z,15.27
2022-12-31T18:01:23.735Z,15.27
2022-12-31T18:03:51.303Z,15.27
2022-12-31T18:06:21.508Z,15.28
2022-12-31T18:08:48.079Z,15.30
2022-12-31T18:11:23.324Z,15.32
2022-12-31T18:13:53.334Z,15.32
2022-12-31T18:16:27.176Z,15.32
2022-12-31T18:19:03.705Z,15.27
2022-12-31T18:21:34.073Z,15.35
2022-12-31T18:26:28.342Z,15.38
2022-12-31T18:29:01.561Z,15.41
2022-12-31T18:31:30.719Z,15.44
2022-12-31T18:33:59.599Z,15.48
2022-12-31T18:36:28.266Z,15.42
2022-12-31T18:38:56.008Z,15.45
2022-12-31T18:41:26.755Z,15.45
2022-12-31T18:43:54.646Z,15.46
2022-12-31T18:46:23.366Z,15.48
2022-12-31T18:48:52.002Z,15.47
2022-12-31T18:51:26.446Z,15.49
2022-12-31T18:53:58.736Z,15.50
2022-12-31T18:56:25.212Z,15.51
2022-12-31T18:58:52.245Z,15.50
2022-12-31T19:01:30.753Z,15.51
2022-12-31T19:04:03.435Z,15.50
2022-12-31T19:06:30.568Z,15.50
2022-12-31T19:08:56.951Z,15.51
2022-12-31T19:11:23.830Z,15.52
2022-12-31T19:13:50.315Z,15.53
2022-12-31T19:16:17.960Z,15.52
2022-12-31T19:18:44.954Z,15.51
2022-12-31T19:21:18.584Z,15.52
2022-12-31T19:23:49.406Z,15.53
2022-12-31T19:26:24.110Z,15.54
2022-12-31T19:29:01.717Z,15.53
2022-12-31T19:31:28.289Z,15.51
2022-12-31T19:33:55.169Z,15.50
2022-12-31T19:36:31.787Z,15.50
2022-12-31T19:38:58.440Z,15.51
2022-12-31T19:41:24.927Z,15.53
2022-12-31T19:43:57.767Z,15.50
2022-12-31T19:46:25.093Z,15.49
2022-12-31T19:48:51.599Z,15.48
2022-12-31T19:51:26.819Z,15.46
2022-12-31T19:53:53.415Z,15.49
2022-12-31T19:56:20.266Z,15.49
2022-12-31T19:58:47.053Z,15.50
2022-12-31T20:01:24.607Z,15.49
2022-12-31T20:03:51.835Z,15.51
2022-12-31T20:06:22.862Z,15.53
2022-12-31T20:08:49.913Z,15.53
2022-12-31T20:11:22.066Z,15.54
2022-12-31T20:13:49.521Z,15.55
2022-12-31T20:16:20.932Z,15.55
2022-12-31T20:18:48.602Z,15.54
2022-12-31T20:21:24.154Z,15.54
2022-12-31T20:23:52.157Z,15.54
2022-12-31T20:26:20.394Z,15.53
2022-12-31T20:28:47.691Z,15.53
2022-12-31T20:31:20.258Z,15.54
2022-12-31T20:33:47.162Z,15.54
2022-12-31T20:36:16.598Z,15.54
2022-12-31T20:38:46.377Z,15.54
2022-12-31T20:41:16.039Z,15.50
2022-12-31T20:43:47.733Z,15.51
2022-12-31T20:46:20.097Z,15.50
2022-12-31T20:48:48.379Z,15.47
2022-12-31T20:51:16.753Z,15.48
2022-12-31T20:53:49.092Z,15.47
2022-12-31T20:56:17.061Z,15.47
2022-12-31T20:58:44.216Z,15.48
2022-12-31T21:01:17.868Z,15.48
2022-12-31T21:04:07.114Z,15.47
2022-12-31T21:06:35.370Z,15.47
2022-12-31T21:09:03.946Z,15.46
2022-12-31T21:11:49.350Z,15.46
2022-12-31T21:14:16.073Z,15.44
2022-12-31T21:16:43.419Z,15.45
2022-12-31T21:19:10.239Z,15.46
2022-12-31T21:21:37.209Z,15.44
2022-12-31T21:24:04.939Z,15.45
2022-12-31T21:26:31.471Z,15.46
2022-12-31T21:29:00.819Z,15.47
2022-12-31T21:31:27.764Z,15.46
2022-12-31T21:33:55.715Z,15.47
2022-12-31T21:36:22.603Z,15.48
2022-12-31T21:38:49.318Z,15.50
2022-12-31T21:41:35.016Z,15.50
2022-12-31T21:44:01.891Z,15.50
2022-12-31T21:46:29.208Z,15.50
2022-12-31T21:48:57.883Z,15.51
2022-12-31T21:51:25.055Z,15.50
2022-12-31T21:53:52.564Z,15.52
2022-12-31T21:56:21.296Z,15.52
2022-12-31T21:59:12.479Z,15.52
2022-12-31T22:02:01.530Z,15.51
2022-12-31T22:07:18.723Z,15.49
2022-12-31T22:09:45.288Z,15.52
2022-12-31T22:12:11.815Z,15.53
2022-12-31T22:14:38.364Z,15.51
2022-12-31T22:17:04.977Z,15.54
2022-12-31T22:19:54.592Z,15.56
2022-12-31T22:22:22.384Z,15.51
2022-12-31T22:24:50.492Z,15.54
2022-12-31T22:27:28.432Z,15.53
2022-12-31T22:29:56.396Z,15.52
2022-12-31T22:32:22.893Z,15.53
2022-12-31T22:34:49.652Z,15.53
2022-12-31T22:37:46.507Z,15.51
2022-12-31T22:40:02.850Z,15.51
2022-12-31T22:42:29.507Z,15.54
2022-12-31T22:44:55.957Z,15.54
2022-12-31T22:47:22.391Z,15.57
2022-12-31T22:49:49.244Z,15.58
2022-12-31T22:52:15.938Z,15.61
2022-12-31T22:54:42.532Z,15.59
2022-12-31T22:57:13.397Z,15.60
2022-12-31T22:59:44.741Z,15.58
2022-12-31T23:02:11.611Z,15.57
2022-12-31T23:04:37.940Z,15.56
2022-12-31T23:07:04.393Z,15.60
2022-12-31T23:09:49.592Z,15.59
2022-12-31T23:12:15.949Z,15.57
2022-12-31T23:15:01.044Z,15.58
2022-12-31T23:17:46.305Z,15.54
2022-12-31T23:20:35.819Z,15.55
2022-12-31T23:23:08.330Z,15.54
2022-12-31T23:25:38.469Z,15.51
2022-12-31T23:28:05.589Z,15.50
2022-12-31T23:30:32.404Z,15.49
2022-12-31T23:32:58.910Z,15.48
2022-12-31T23:35:25.489Z,15.45
2022-12-31T23:37:51.869Z,15.44
2022-12-31T23:40:21.601Z,15.42
2022-12-31T23:42:49.790Z,15.38
2022-12-31T23:45:16.615Z,15.34
2022-12-31T23:47:43.094Z,15.30
2022-12-31T23:50:09.725Z,15.27
2022-12-31T23:52:36.126Z,15.25
2022-12-31T23:55:03.697Z,15.21
2022-12-31T23:57:30.234Z,15.20
2022-12-31T23:59:56.776Z,15.15
